Time;durP1;ratioP1;P1;durP2;ratioP2;P2;SDS_P1;SDS_P2;PMS_P1;PMS_P2;Temp;Humidity;BMP_temperature;BMP_pressure;BME280_temperature;BME280_humidity;BME280_pressure;Samples;Min_cycle;Max_cycle;Signal;HPM_P1;HPM_P2
2023/12/07 00:02:17;;;;;;;18.58;11.50;;;;;;;;;;5055046;28;20404;-74
2023/12/07 00:04:43;;;;;;;16.87;11.53;;;;;;;;;;5055023;28;20457;-74
2023/12/07 00:07:09;;;;;;;16.40;11.00;;;;;;;;;;5072027;28;20407;-74
2023/12/07 00:09:35;;;;;;;18.35;10.88;;;;;;;;;;5071239;28;20402;-74
2023/12/07 00:12:01;;;;;;;15.47;10.97;;;;;;;;;;5071222;28;20542;-74
2023/12/07 00:14:27;;;;;;;16.08;10.38;;;;;;;;;;5057385;28;20410;-74
2023/12/07 00:16:54;;;;;;;16.95;10.68;;;;;;;;;;5084323;28;20447;-74
2023/12/07 00:19:20;;;;;;;15.52;10.52;;;;;;;;;;5080320;28;20460;-74
2023/12/07 00:21:46;;;;;;;15.95;10.75;;;;;;;;;;5071690;28;20831;-74
2023/12/07 00:24:12;;;;;;;17.42;10.48;;;;;;;;;;5071614;28;20736;-74
2023/12/07 00:26:38;;;;;;;14.88;10.00;;;;;;;;;;5071779;28;20431;-74
2023/12/07 00:29:04;;;;;;;17.52;10.65;;;;;;;;;;5077303;28;20402;-74
2023/12/07 00:31:30;;;;;;;14.50;9.90;;;;;;;;;;5072456;28;20489;-74
2023/12/07 00:33:56;;;;;;;13.55;9.90;;;;;;;;;;5069686;28;20938;-74
2023/12/07 00:36:22;;;;;;;14.23;9.48;;;;;;;;;;5112769;27;21006;-75
2023/12/07 00:38:48;;;;;;;16.17;10.03;;;;;;;;;;5071251;28;20784;-74
2023/12/07 00:41:14;;;;;;;14.88;9.68;;;;;;;;;;5071016;28;20410;-74
2023/12/07 00:43:40;;;;;;;14.23;9.50;;;;;;;;;;5071098;28;20809;-75
2023/12/07 00:46:10;;;;;;;15.45;9.70;;;;;;;;;;5089950;28;20399;-74
2023/12/07 00:48:36;;;;;;;15.25;9.70;;;;;;;;;;5073323;28;20407;-74
2023/12/07 00:51:02;;;;;;;16.23;10.00;;;;;;;;;;5069451;28;20479;-74
2023/12/07 00:53:28;;;;;;;16.23;10.23;;;;;;;;;;5079831;28;20398;-74
2023/12/07 00:55:54;;;;;;;15.05;9.90;;;;;;;;;;5069975;28;20430;-74
2023/12/07 00:58:20;;;;;;;18.45;10.32;;;;;;;;;;5053585;28;20416;-74
2023/12/07 01:00:47;;;;;;;15.07;10.30;;;;;;;;;;5071783;28;20755;-74
2023/12/07 01:03:13;;;;;;;15.73;10.13;;;;;;;;;;5073330;28;20747;-74
2023/12/07 01:05:39;;;;;;;15.50;10.45;;;;;;;;;;5069437;28;20414;-74
2023/12/07 01:08:05;;;;;;;16.95;10.27;;;;;;;;;;5074605;28;20486;-74
2023/12/07 01:10:32;;;;;;;16.30;10.32;;;;;;;;;;5072164;28;20533;-74
2023/12/07 01:12:58;;;;;;;14.95;10.20;;;;;;;;;;5070624;28;20408;-74
2023/12/07 01:15:24;;;;;;;15.13;10.53;;;;;;;;;;5073445;28;20431;-74
2023/12/07 01:17:50;;;;;;;17.67;11.00;;;;;;;;;;5083151;28;20739;-74
2023/12/07 01:20:17;;;;;;;16.10;11.25;;;;;;;;;;5069506;28;20412;-74
2023/12/07 01:22:43;;;;;;;18.05;11.50;;;;;;;;;;5070143;28;20399;-74
2023/12/07 01:25:09;;;;;;;18.20;11.25;;;;;;;;;;5068814;28;20947;-74
2023/12/07 01:27:35;;;;;;;17.85;11.88;;;;;;;;;;5053137;28;20418;-74
2023/12/07 01:30:02;;;;;;;18.35;11.88;;;;;;;;;;5054252;28;20400;-74
2023/12/07 01:32:28;;;;;;;19.60;12.15;;;;;;;;;;5091465;28;20409;-74
2023/12/07 01:34:54;;;;;;;18.43;12.23;;;;;;;;;;5074516;28;20484;-74
2023/12/07 01:37:21;;;;;;;19.98;12.45;;;;;;;;;;5075831;28;20394;-74
2023/12/07 01:39:47;;;;;;;17.40;11.63;;;;;;;;;;5052011;28;20420;-74
2023/12/07 01:42:13;;;;;;;18.57;12.27;;;;;;;;;;5069892;28;20488;-74
2023/12/07 01:44:39;;;;;;;20.60;12.43;;;;;;;;;;5060959;28;20407;-74
2023/12/07 01:47:08;;;;;;;20.02;12.30;;;;;;;;;;5069917;28;20399;-74
2023/12/07 01:49:34;;;;;;;21.42;12.27;;;;;;;;;;5062597;28;20422;-74
2023/12/07 01:52:01;;;;;;;18.23;12.20;;;;;;;;;;5070587;28;20396;-74
2023/12/07 01:54:27;;;;;;;19.58;12.52;;;;;;;;;;5073996;28;20938;-74
2023/12/07 01:56:53;;;;;;;17.27;11.27;;;;;;;;;;5055182;28;20415;-74
2023/12/07 01:59:19;;;;;;;18.45;12.13;;;;;;;;;;5069829;28;20407;-74
2023/12/07 02:01:45;;;;;;;21.08;12.55;;;;;;;;;;5035820;28;20487;-74
2023/12/07 02:04:11;;;;;;;21.53;12.60;;;;;;;;;;5073733;28;20439;-74
2023/12/07 02:06:37;;;;;;;17.88;12.43;;;;;;;;;;5075792;28;20409;-74
2023/12/07 02:09:03;;;;;;;21.15;12.45;;;;;;;;;;5062718;28;20395;-74
2023/12/07 02:11:29;;;;;;;20.10;13.00;;;;;;;;;;5061006;28;20913;-74
2023/12/07 02:13:57;;;;;;;20.20;12.27;;;;;;;;;;5072768;28;20484;-78
2023/12/07 02:16:42;;;;;;;20.90;12.68;;;;;;;;;;5073953;28;20422;-79
2023/12/07 02:19:39;;;;;;;20.02;12.55;;;2.10;99.90;;;;;;5073336;28;20907;-79
2023/12/07 02:22:10;;;;;;;22.05;13.55;;;;;;;;;;5056249;28;20962;-78
2023/12/07 02:24:38;;;;;;;21.87;13.07;;;;;;;;;;5078541;28;20405;-77
2023/12/07 02:27:04;;;;;;;21.00;13.38;;;;;;;;;;5074068;28;20737;-77
2023/12/07 02:29:30;;;;;;;19.83;12.68;;;;;;;;;;5072510;28;20513;-77
2023/12/07 02:31:56;;;;;;;21.27;13.43;;;;;;;;;;5074097;28;20396;-78
2023/12/07 02:34:22;;;;;;;22.75;13.35;;;;;;;;;;5071795;28;20767;-78
2023/12/07 02:36:49;;;;;;;20.07;12.67;;;;;;;;;;5074797;28;20396;-78
2023/12/07 02:39:15;;;;;;;20.93;13.50;;;;;;;;;;5073777;28;20468;-77
2023/12/07 02:41:42;;;;;;;21.02;13.23;;;;;;;;;;5078033;28;20431;-78
2023/12/07 02:44:08;;;;;;;21.23;13.57;;;;;;;;;;5072389;28;20443;-78
2023/12/07 02:46:34;;;;;;;25.20;13.88;;;;;;;;;;5073736;28;20963;-78
2023/12/07 02:49:00;;;;;;;22.98;13.05;;;;;;;;;;5085208;28;20406;-78
2023/12/07 02:51:26;;;;;;;20.52;13.30;;;;;;;;;;5074841;28;20490;-78
2023/12/07 02:53:52;;;;;;;22.45;13.25;;;;;;;;;;5074543;28;20414;-78
2023/12/07 02:56:18;;;;;;;20.10;13.10;;;;;;;;;;5073413;28;20485;-78
2023/12/07 02:58:44;;;;;;;21.58;13.52;;;;;;;;;;5073454;28;20783;-78
2023/12/07 03:01:10;;;;;;;24.60;13.80;;;;;;;;;;5055747;28;20423;-78
2023/12/07 03:03:38;;;;;;;23.55;13.57;;;;;;;;;;5055867;28;20404;-78
2023/12/07 03:06:04;;;;;;;21.80;12.85;;;;;;;;;;5073590;28;20918;-79
2023/12/07 03:08:30;;;;;;;20.77;13.23;;;;;;;;;;5090200;28;20491;-77
2023/12/07 03:10:56;;;;;;;20.10;13.13;;;;;;;;;;5079984;28;20403;-78
2023/12/07 03:13:22;;;;;;;20.92;12.93;;;;;;;;;;5072577;28;20407;-79
2023/12/07 03:15:48;;;;;;;23.73;13.93;;;;;;;;;;5081280;28;20999;-77
2023/12/07 03:18:15;;;;;;;22.33;14.02;;;;;;;;;;5071416;28;20431;-77
2023/12/07 03:20:41;;;;;;;23.20;13.50;;;;;;;;;;5055962;28;20411;-77
2023/12/07 03:23:07;;;;;;;22.77;13.50;;;;;;;;;;5073319;28;20457;-78
2023/12/07 03:25:33;;;;;;;23.77;13.65;;;;;;;;;;5072707;28;21146;-77
2023/12/07 03:27:59;;;;;;;25.17;13.98;;;;;;;;;;5072470;28;20407;-77
2023/12/07 03:30:25;;;;;;;23.35;13.82;;;;;;;;;;5083808;28;20492;-78
2023/12/07 03:32:51;;;;;;;25.35;15.15;;;;;;;;;;5038745;28;20404;-77
2023/12/07 03:35:17;;;;;;;24.80;14.77;;;;;;;;;;5070891;28;20420;-77
2023/12/07 03:37:43;;;;;;;25.13;14.57;;;;;;;;;;5079755;28;20394;-78
2023/12/07 03:40:10;;;;;;;24.50;14.80;;;;;;;;;;5081372;28;20434;-78
2023/12/07 03:42:36;;;;;;;26.33;14.82;;;;;;;;;;5056267;28;20892;-77
2023/12/07 03:45:02;;;;;;;24.00;14.77;;;;;;;;;;5082122;28;20968;-77
2023/12/07 03:47:28;;;;;;;23.50;14.88;;;;;;;;;;5072388;28;20737;-79
2023/12/07 03:49:54;;;;;;;25.38;14.60;;;;;;;;;;5083627;28;20898;-78
2023/12/07 03:52:20;;;;;;;23.90;14.60;;;;;;;;;;5077176;28;20777;-78
2023/12/07 03:54:46;;;;;;;24.98;14.75;;;;;;;;;;5063567;28;20440;-78
2023/12/07 03:57:12;;;;;;;22.70;14.18;;;;;;;;;;5069005;28;20445;-78
2023/12/07 03:59:38;;;;;;;25.40;14.53;;;;;;;;;;5075946;28;20406;-78
2023/12/07 04:02:04;;;;;;;28.02;14.88;;;;;;;;;;5072275;28;20805;-78
2023/12/07 04:04:30;;;;;;;28.00;14.70;;;;;;;;;;5076109;28;20501;-78
2023/12/07 04:06:56;;;;;;;26.47;15.13;;;;;;;;;;5059333;28;20764;-78
2023/12/07 04:09:22;;;;;;;25.77;15.38;;;;;;;;;;5055413;28;20732;-78
2023/12/07 04:11:48;;;;;;;25.42;15.68;;;;;;;;;;5071728;28;20960;-78
2023/12/07 04:14:15;;;;;;;28.87;16.00;;;;;;;;;;5071370;28;20400;-78
2023/12/07 04:16:41;;;;;;;27.90;15.98;;;;;;;;;;5072019;28;20480;-78
2023/12/07 04:19:07;;;;;;;27.13;16.73;;;;;;;;;;5071689;28;20944;-78
2023/12/07 04:21:33;;;;;;;29.67;15.95;;;;;;;;;;5069566;28;21048;-78
2023/12/07 04:23:59;;;;;;;31.85;16.15;;;;;;;;;;5053887;28;20903;-78
2023/12/07 04:26:25;;;;;;;28.75;15.90;;;;;;;;;;5084295;28;20406;-78
2023/12/07 04:28:51;;;;;;;27.35;16.17;;;;;;;;;;5057673;28;20824;-77
2023/12/07 04:31:17;;;;;;;28.63;16.10;;;;;;;;;;5071003;28;20403;-77
2023/12/07 04:33:43;;;;;;;27.10;15.88;;;;;;;;;;5073170;28;20486;-77
2023/12/07 04:36:09;;;;;;;29.83;16.85;;;;;;;;;;5069607;28;20485;-78
2023/12/07 04:38:35;;;;;;;31.63;17.05;;;;;;;;;;5075830;28;20497;-78
2023/12/07 04:41:01;;;;;;;31.52;17.73;;;;;;;;;;5072272;28;20483;-78
2023/12/07 04:43:27;;;;;;;31.73;17.55;;;;;;;;;;5070641;28;20400;-77
2023/12/07 04:45:53;;;;;;;31.13;18.00;;;;;;;;;;5073192;28;20509;-77
2023/12/07 04:48:19;;;;;;;35.85;19.05;;;;;;;;;;5063032;28;20399;-77
2023/12/07 04:50:45;;;;;;;35.58;18.90;;;;;;;;;;5063316;28;20413;-77
2023/12/07 04:53:12;;;;;;;33.53;18.67;;;;;;;;;;5070862;28;20411;-77
2023/12/07 04:55:38;;;;;;;36.88;19.52;;;;;;;;;;5089117;28;20424;-77
2023/12/07 04:58:04;;;;;;;37.47;19.65;;;;;;;;;;5067847;28;20410;-78
2023/12/07 05:00:30;;;;;;;35.23;18.90;;;;;;;;;;5070556;28;20474;-77
2023/12/07 05:02:56;;;;;;;50.13;21.48;;;;;;;;;;5070923;28;20411;-78
2023/12/07 05:05:24;;;;;;;38.83;20.00;;;;;;;;;;5070030;28;20510;-77
2023/12/07 05:07:50;;;;;;;40.45;20.38;;;;;;;;;;5108916;27;20764;-78
2023/12/07 05:10:16;;;;;;;41.72;21.05;;;;;;;;;;5070150;28;20541;-77
2023/12/07 05:12:42;;;;;;;55.77;22.60;;;;;;;;;;5071451;28;20871;-77
2023/12/07 05:15:09;;;;;;;38.47;19.13;;;;;;;;;;5075332;28;20768;-77
2023/12/07 05:17:35;;;;;;;41.03;20.13;;;;;;;;;;5066003;28;20913;-77
2023/12/07 05:20:02;;;;;;;42.30;20.55;;;;;;;;;;5062767;28;20789;-77
2023/12/07 05:22:28;;;;;;;43.97;22.23;;;;;;;;;;5070621;28;20461;-77
2023/12/07 05:24:55;;;;;;;43.00;21.93;;;;;;;;;;5071354;28;20433;-78
2023/12/07 05:27:21;;;;;;;45.78;21.23;;;;;;;;;;5075983;28;20405;-79
2023/12/07 05:29:47;;;;;;;251.63;35.33;;;;;;;;;;5082728;28;20527;-78
2023/12/07 05:32:13;;;;;;;133.15;27.10;;;;;;;;;;5060473;28;20398;-78
2023/12/07 05:34:39;;;;;;;494.20;55.63;;;;;;;;;;5066131;28;20873;-78
2023/12/07 05:37:05;;;;;;;279.70;38.15;;;;;;;;;;5082296;28;20404;-78
2023/12/07 05:39:31;;;;;;;69.25;23.80;;;;;;;;;;5079125;28;20879;-78
2023/12/07 05:41:58;;;;;;;53.87;21.23;;;;;;;;;;5058832;28;20905;-78
2023/12/07 05:44:24;;;;;;;73.68;23.38;;;;;;;;;;5037775;28;20400;-78
2023/12/07 05:46:50;;;;;;;44.08;21.50;;;;;;;;;;5068847;28;20496;-77
2023/12/07 05:49:16;;;;;;;42.03;20.33;;;;;;;;;;5087332;28;20407;-77
2023/12/07 05:51:42;;;;;;;40.13;19.98;;;;;;;;;;5070323;28;20540;-79
2023/12/07 05:54:08;;;;;;;41.15;19.45;;;;;;;;;;5072541;28;20408;-78
2023/12/07 05:56:34;;;;;;;43.03;20.52;;;;;;;;;;5070502;28;20521;-74
2023/12/07 05:59:00;;;;;;;35.95;19.08;;;;;;;;;;5066499;28;20916;-74
2023/12/07 06:01:26;;;;;;;39.05;19.88;;;;;;;;;;5073219;28;20403;-74
2023/12/07 06:03:52;;;;;;;49.38;20.35;;;;;;;;;;5068396;28;20988;-74
2023/12/07 06:06:21;;;;;;;37.53;19.77;;;;;;;;;;5071606;28;20887;-74
2023/12/07 06:08:47;;;;;;;43.63;20.90;;;;;;;;;;5073853;28;20400;-73
2023/12/07 06:11:13;;;;;;;37.93;19.83;;;;;;;;;;5061129;28;20402;-74
2023/12/07 06:13:39;;;;;;;47.47;20.52;;;;;;;;;;5090087;28;20958;-74
2023/12/07 06:16:05;;;;;;;40.60;20.15;;;;;;;;;;5074649;28;20940;-73
2023/12/07 06:18:31;;;;;;;40.70;20.27;;;;;;;;;;5068782;28;20481;-74
2023/12/07 06:20:57;;;;;;;36.38;19.60;;;;;;;;;;5075165;28;20419;-74
2023/12/07 06:23:23;;;;;;;36.88;19.30;;;;;;;;;;5071312;28;20926;-74
2023/12/07 06:25:49;;;;;;;40.33;19.15;;;;;;;;;;5073445;28;20788;-74
2023/12/07 06:28:15;;;;;;;41.50;19.52;;;;;;;;;;5083035;28;20398;-73
2023/12/07 06:30:41;;;;;;;39.70;20.02;;;;;;;;;;5089873;28;20481;-73
2023/12/07 06:33:08;;;;;;;38.33;20.52;;;;;;;;;;5075794;28;20402;-73
2023/12/07 06:35:34;;;;;;;39.75;20.33;;;;;;;;;;5068087;28;20426;-73
2023/12/07 06:38:00;;;;;;;41.10;20.35;;;;;;;;;;5057844;28;20465;-73
2023/12/07 06:40:26;;;;;;;84.60;48.22;;;;;;;;;;5074375;28;20909;-74
2023/12/07 06:42:52;;;;;;;56.13;30.58;;;;;;;;;;5033458;28;20421;-74
2023/12/07 06:45:18;;;;;;;213.77;42.22;;;;;;;;;;5069717;28;20423;-74
2023/12/07 06:47:44;;;;;;;164.40;38.38;;;;;;;;;;5075004;28;20592;-74
2023/12/07 06:50:10;;;;;;;52.72;24.85;;;;;;;;;;5073177;28;20407;-73
2023/12/07 06:52:37;;;;;;;48.97;22.90;;;;;;;;;;5072869;28;20461;-74
2023/12/07 06:55:03;;;;;;;66.00;26.90;;;;;;;;;;5072642;28;20430;-78
2023/12/07 06:57:29;;;;;;;77.10;27.55;;;;;;;;;;5074546;28;20412;-78
2023/12/07 06:59:55;;;;;;;64.03;27.87;;;;;;;;;;5087544;28;20408;-77
2023/12/07 07:02:22;;;;;;;61.95;27.65;;;;;;;;;;5093293;28;20412;-77
2023/12/07 07:04:48;;;;;;;84.13;28.65;;;;;;;;;;5082457;28;20423;-73
2023/12/07 07:07:15;;;;;;;62.40;26.98;;;;;;;;;;5079669;28;20903;-73
2023/12/07 07:09:41;;;;;;;65.37;28.10;;;;;;;;;;5071525;28;20395;-73
2023/12/07 07:12:07;;;;;;;62.58;27.38;;;;;;;;;;5090120;28;20393;-73
2023/12/07 07:14:34;;;;;;;68.55;29.20;;;;;;;;;;5087595;28;20409;-73
2023/12/07 07:17:00;;;;;;;71.10;29.93;;;;;;;;;;5073034;28;20462;-73
2023/12/07 07:19:26;;;;;;;70.32;30.15;;;;;;;;;;5089433;28;20412;-73
2023/12/07 07:21:52;;;;;;;75.80;29.88;;;;;;;;;;5056576;28;20758;-77
2023/12/07 07:24:18;;;;;;;67.40;28.70;;;;;;;;;;5076587;28;20951;-77
2023/12/07 07:26:44;;;;;;;130.27;34.40;;;;;;;;;;5084168;28;20819;-77
2023/12/07 07:29:10;;;;;;;70.53;31.35;;;;;;;;;;5090558;28;20402;-77
2023/12/07 07:31:36;;;;;;;76.82;31.05;;;;;;;;;;5057032;28;20423;-77
2023/12/07 07:34:02;;;;;;;78.50;31.85;;;;;;;;;;5072646;28;20486;-77
2023/12/07 07:36:29;;;;;;;79.70;32.53;;;;;;;;;;5089607;28;20513;-78
2023/12/07 07:38:55;;;;;;;111.80;38.67;;;;;;;;;;5076529;28;20420;-78
2023/12/07 07:41:21;;;;;;;81.45;34.63;;;;;;;;;;5071758;28;20409;-77
2023/12/07 07:43:47;;;;;;;83.28;34.67;;;;;;;;;;5072669;28;20743;-78
2023/12/07 07:46:14;;;;;;;87.50;34.10;;;;;;;;;;5063601;28;20467;-78
2023/12/07 07:48:40;;;;;;;171.23;41.78;;;;;;;;;;5075836;28;20423;-77
2023/12/07 07:51:07;;;;;;;90.63;34.90;;;;;;;;;;5071869;28;20477;-77
2023/12/07 07:53:33;;;;;;;86.63;34.15;;;;;;;;;;5055864;28;20740;-77
2023/12/07 07:55:59;;;;;;;84.22;34.63;;;;;;;;;;5071638;28;20419;-78
2023/12/07 07:58:25;;;;;;;285.55;46.03;;;;;;;;;;5059710;28;20449;-78
2023/12/07 08:00:52;;;;;;;87.88;36.28;;;;;;;;;;5091450;28;20455;-77
2023/12/07 08:03:18;;;;;;;91.28;35.45;;;;;;;;;;5073474;28;20927;-77
2023/12/07 08:05:44;;;;;;;91.35;36.90;;;;;;;;;;5073577;28;20411;-77
2023/12/07 08:08:11;;;;;;;92.72;37.65;;;;;;;;;;5056611;28;20408;-78
2023/12/07 08:10:39;;;;;;;119.03;38.08;;;;;;;;;;5074818;28;20484;-77
2023/12/07 08:13:07;;;;;;;95.85;37.42;;;;;;;;;;5064657;28;20408;-77
2023/12/07 08:15:33;;;;;;;107.30;38.88;;;;;;;;;;5087081;28;20419;-77
2023/12/07 08:17:59;;;;;;;235.68;49.13;;;;;;;;;;5069434;28;20446;-77
2023/12/07 08:20:25;;;;;;;193.15;46.35;;;;;;;;;;5054468;28;20404;-77
2023/12/07 08:22:51;;;;;;;96.97;37.65;;;;;;;;;;5074462;28;20967;-77
2023/12/07 08:25:17;;;;;;;95.93;39.60;;;;;;;;;;5071057;28;20395;-77
2023/12/07 08:27:47;;;;;;;89.10;38.75;;;;;;;;;;5073101;28;20407;-77
2023/12/07 08:30:13;;;;;;;96.40;38.15;;;;;;;;;;5068391;28;20486;-77
2023/12/07 08:32:39;;;;;;;90.00;37.80;;;;;;;;;;5078191;28;20492;-78
2023/12/07 08:35:06;;;;;;;95.20;38.72;;;;;;;;;;5071581;28;20780;-74
2023/12/07 08:37:33;;;;;;;214.50;45.65;;;;;;;;;;5059383;28;20486;-74
2023/12/07 08:39:59;;;;;;;250.77;47.97;;;;;;;;;;5054081;28;20400;-74
2023/12/07 08:42:26;;;;;;;110.10;38.25;;;;;;;;;;5060178;28;20404;-73
2023/12/07 08:44:52;;;;;;;89.28;38.65;;;;;;;;;;5077507;28;20398;-73
2023/12/07 08:47:18;;;;;;;107.57;41.20;;;;;;;;;;5055974;28;20416;-73
2023/12/07 08:49:45;;;;;;;278.92;52.80;;;;;;;;;;5052578;28;20427;-73
2023/12/07 08:52:11;;;;;;;93.30;38.28;;;;;;;;;;5107605;27;20400;-72
2023/12/07 08:54:37;;;;;;;83.28;38.25;;;;;;;;;;5073111;28;20401;-73
2023/12/07 08:57:03;;;;;;;344.95;57.85;;;;;;;;;;5071033;28;20399;-72
2023/12/07 08:59:31;;;;;;;256.90;52.08;;;;;;;;;;5066372;28;20466;-77
2023/12/07 09:01:57;;;;;;;78.88;35.80;;;;;;;;;;5080590;28;20407;-77
2023/12/07 09:04:23;;;;;;;72.85;35.17;;;;;;;;;;5070231;28;20412;-77
2023/12/07 09:06:49;;;;;;;123.15;39.45;;;;;;;;;;5069066;28;20416;-77
2023/12/07 09:09:15;;;;;;;395.45;61.17;;;;;;;;;;5075543;28;20402;-77
2023/12/07 09:11:41;;;;;;;72.55;35.55;;;;;;;;;;5070969;28;20404;-77
2023/12/07 09:14:07;;;;;;;76.20;37.13;;;;;;;;;;5101532;28;20458;-77
2023/12/07 09:16:34;;;;;;;72.20;36.53;;;;;;;;;;5054183;28;20431;-77
2023/12/07 09:19:01;;;;;;;389.75;57.50;;;;;;;;;;5070001;28;20404;-77
2023/12/07 09:21:27;;;;;;;68.35;33.63;;;;;;;;;;5069892;28;20403;-77
2023/12/07 09:23:54;;;;;;;67.50;34.45;;;;;;;;;;5068513;28;20468;-78
2023/12/07 09:26:20;;;;;;;65.40;33.40;;;;;;;;;;5085944;28;20420;-78
2023/12/07 09:28:47;;;;;;;104.53;36.65;;;;;;;;;;5069888;28;20431;-77
2023/12/07 09:31:13;;;;;;;69.45;33.25;;;;;;;;;;5086090;28;20439;-76
2023/12/07 09:33:39;;;;;;;58.90;32.75;;;;;;;;;;5069831;28;20422;-76
2023/12/07 09:36:08;;;;;;;56.60;32.33;;;;;;;;;;5069870;28;20435;-76
2023/12/07 09:38:36;;;;;;;72.10;34.35;;;;;;;;;;5103892;28;20414;-76
2023/12/07 09:41:03;;;;;;;52.80;30.40;;;;;;;;;;5065337;28;20423;-77
2023/12/07 09:43:29;;;;;;;46.63;28.55;;;;;;;;;;5068465;28;20426;-77
2023/12/07 09:45:55;;;;;;;44.90;27.38;;;;;;;;;;5052570;28;20399;-77
2023/12/07 09:48:22;;;;;;;196.38;37.83;;;;;;;;;;5069622;28;20974;-77
2023/12/07 09:50:48;;;;;;;40.60;25.35;;;;;;;;;;5068603;28;20466;-77
2023/12/07 09:53:14;;;;;;;38.70;25.20;;;;;;;;;;5070347;28;20763;-77
2023/12/07 09:55:40;;;;;;;41.90;24.77;;;;;;;;;;5071676;28;20434;-77
2023/12/07 09:58:06;;;;;;;48.13;26.03;;;;;;;;;;5101040;28;20404;-78
2023/12/07 10:00:33;;;;;;;49.65;25.23;;;;;;;;;;5086511;28;20891;-77
2023/12/07 10:02:59;;;;;;;43.47;26.40;;;;;;;;;;5069707;28;20392;-77
2023/12/07 10:05:25;;;;;;;45.80;25.02;;;;;;;;;;5069357;28;20400;-77
2023/12/07 10:07:51;;;;;;;45.85;25.73;;;;;;;;;;5084581;28;20457;-78
2023/12/07 10:10:18;;;;;;;93.95;29.65;;;;;;;;;;5070103;28;20903;-73
2023/12/07 10:12:55;;;;;;;60.53;25.35;;;;;;;;;;5085484;28;20431;-72
2023/12/07 10:15:22;;;;;;;45.28;26.55;;;;;;;;;;5068838;28;20940;-74
2023/12/07 10:17:52;;;;;;;41.05;25.73;;;;;;;;;;5085949;28;20906;-73
2023/12/07 10:20:25;;;;;;;51.50;25.77;;;;;;;;;;5069710;28;20498;-80
2023/12/07 10:23:03;;;;;;;43.72;25.13;;;;;;;;;;5082648;28;20400;-79
2023/12/07 10:25:30;;;;;;;38.45;24.05;;;;;;;;;;5085753;28;20435;-79
2023/12/07 10:27:56;;;;;;;49.47;24.65;;;;;;;;;;5089962;28;20484;-79
2023/12/07 10:30:25;;;;;;;37.08;25.00;;;;;;;;;;5073253;28;20406;-79
2023/12/07 10:32:52;;;;;;;36.40;24.75;;;;;;;;;;5073226;28;20934;-78
2023/12/07 10:35:19;;;;;;;48.47;25.65;;;;;;;;;;5091237;28;20520;-78
2023/12/07 10:37:46;;;;;;;39.28;26.00;;;;;;;;;;5102366;28;20407;-77
2023/12/07 10:40:13;;;;;;;42.03;26.73;;;;;;;;;;5073240;28;20925;-77
2023/12/07 10:42:40;;;;;;;42.05;26.35;;;;;;;;;;5073595;28;20414;-77
2023/12/07 10:45:07;;;;;;;46.45;27.20;;;;;;;;;;5072836;28;20408;-77
2023/12/07 10:47:35;;;;;;;39.63;26.80;;;;;;;;;;5072944;28;20832;-78
2023/12/07 10:50:03;;;;;;;41.80;27.70;;;;;;;;;;5071011;28;20412;-77
2023/12/07 10:52:33;;;;;;;39.28;26.98;;;;;;;;;;5078571;28;20409;-77
2023/12/07 10:55:02;;;;;;;47.50;30.65;;;;;;;;;;5072094;28;20465;-77
2023/12/07 10:57:29;;;;;;;40.58;27.52;;;;;;;;;;5083350;28;20407;-78
2023/12/07 10:59:57;;;;;;;42.97;28.48;;;;;;;;;;5056302;28;20444;-77
2023/12/07 11:02:25;;;;;;;40.20;27.13;;;;;;;;;;5064433;28;20404;-78
2023/12/07 11:04:52;;;;;;;44.37;29.60;;;;;;;;;;5078881;28;20438;-78
2023/12/07 11:07:20;;;;;;;43.60;28.73;;;;;;;;;;5087924;28;20423;-78
2023/12/07 11:09:51;;;;;;;45.53;28.95;;;;;;;;;;5072672;28;20409;-78
2023/12/07 11:12:47;;;;;;;52.47;29.90;;;;;;;;;;5077007;28;20954;-78
2023/12/07 11:15:14;;;;;;;62.47;31.15;;;;;;;;;;5071180;28;20460;-79
2023/12/07 11:17:56;;;;;;;224.73;40.88;;;;;;;;;;5072869;28;20421;-80
2023/12/07 11:20:52;;;;;;;100.05;33.83;;;;;;;;;;5072098;28;20926;-79
2023/12/07 11:23:19;;;;;;;166.57;35.08;;;;;;;;;;5068960;28;20437;-80
2023/12/07 11:25:45;;;;;;;153.20;35.22;;;;;;;;;;5071830;28;20451;-80
2023/12/07 11:28:12;;;;;;;231.98;40.55;;;;;;;;;;5076165;28;20414;-80
2023/12/07 11:30:40;;;;;;;173.07;39.65;;;;;;;;;;5074265;28;20402;-79
2023/12/07 11:33:07;;;;;;;191.50;39.67;;;;;;;;;;5085495;28;20478;-79
2023/12/07 11:35:33;;;;;;;253.32;41.03;;;;;;;;;;5079987;28;20424;-79
2023/12/07 11:38:09;;;;;;;393.03;51.57;;;;;;;;;;5064514;28;20391;-79
2023/12/07 11:40:44;;;;;;;369.80;52.03;;;;;;;;;;5054928;28;20501;-79
2023/12/07 11:43:40;;;;;;;246.95;41.42;;;;;;;;;;5076533;28;20493;-79
2023/12/07 11:46:07;;;;;;;293.48;43.55;;;;;;;;;;5033108;28;20467;-80
2023/12/07 11:48:33;;;;;;;356.15;47.80;;;;;;;;;;5067604;28;20412;-79
2023/12/07 11:50:59;;;;;;;150.60;34.88;;;;;;;;;;5076177;28;20424;-79
2023/12/07 11:53:35;;;;;;;201.40;37.58;;;;;;;;;;5052600;28;20393;-80
2023/12/07 11:56:12;;;;;;;214.82;39.85;;;;;;;;;;5066172;28;20511;-79
2023/12/07 11:58:46;;;;;;;270.20;38.92;;;;;;;;;;5065021;28;20412;-79
2023/12/07 12:01:12;;;;;;;314.63;48.58;;;;;;;;;;5103898;28;20400;-79
2023/12/07 12:03:38;;;;;;;278.25;43.63;;;;;;;;;;5104579;28;20881;-79
2023/12/07 12:06:05;;;;;;;311.65;44.58;;;;;;;;;;5072442;28;20410;-79
2023/12/07 12:08:32;;;;;;;380.15;48.42;;;;;;;;;;5068912;28;20502;-78
2023/12/07 12:10:58;;;;;;;504.60;58.28;;;;;;;;;;5054023;28;20472;-78
2023/12/07 12:13:28;;;;;;;231.73;40.23;;;;;;;;;;5070029;28;20415;-79
2023/12/07 12:15:55;;;;;;;262.88;42.45;;;;;;;;;;5070827;28;20514;-79
2023/12/07 12:18:22;;;;;;;422.65;54.90;;;;;;;;;;5075440;28;20899;-80
2023/12/07 12:20:51;;;;;;;549.15;64.93;;;;;;;;;;5065335;28;20409;-80
2023/12/07 12:23:17;;;;;;;240.23;41.80;;;;;;;;;;5087184;28;20404;-80
2023/12/07 12:25:43;;;;;;;295.40;49.50;;;;;;;;;;5073342;28;20408;-80
2023/12/07 12:28:10;;;;;;;638.67;75.78;;;;;;;;;;5073853;28;20415;-80
2023/12/07 12:30:36;;;;;;;618.28;75.28;;;;;;;;;;5087934;28;20404;-80
2023/12/07 12:33:03;;;;;;;247.20;46.87;;;;;;;;;;5070722;28;20403;-79
2023/12/07 12:35:29;;;;;;;193.45;43.13;;;;;;;;;;5070511;28;20499;-80
2023/12/07 12:37:55;;;;;;;584.28;75.20;;;;;;;;;;5070208;28;20399;-78
2023/12/07 12:40:22;;;;;;;352.98;57.20;;;;;;;;;;5086575;28;20404;-79
2023/12/07 12:42:49;;;;;;;257.08;51.50;;;;;;;;;;5069628;28;20434;-78
2023/12/07 12:45:16;;;;;;;198.55;44.58;;;;;;;;;;5070813;28;20407;-79
2023/12/07 12:47:45;;;;;;;306.67;51.27;;;;;;;;;;5103918;28;20404;-80
2023/12/07 12:50:12;;;;;;;1229.65;126.45;;;;;;;;;;5072309;28;20514;-79
2023/12/07 12:52:41;;;;;;;229.65;44.25;;;;;;;;;;5085745;28;20427;-75
2023/12/07 12:55:10;;;;;;;222.98;47.95;;;;;;;;;;5077528;28;20422;-74
2023/12/07 12:57:36;;;;;;;210.82;44.22;;;;;;;;;;5087640;28;20403;-75
2023/12/07 13:00:02;;;;;;;228.95;46.90;;;;;;;;;;5053424;28;20498;-75
2023/12/07 13:02:28;;;;;;;164.50;40.75;;;;;;;;;;5069764;28;20709;-74
2023/12/07 13:04:55;;;;;;;134.70;39.97;;;;;;;;;;5073415;28;20453;-74
2023/12/07 13:07:24;;;;;;;272.38;51.42;;;;;;;;;;5075052;28;20737;-74
2023/12/07 13:09:50;;;;;;;672.03;77.20;;;;;;;;;;5086499;28;20427;-75
2023/12/07 13:12:16;;;;;;;219.43;49.93;;;;;;;;;;5074350;28;20415;-75
2023/12/07 13:14:42;;;;;;;179.00;45.63;;;;;;;;;;5070353;28;20400;-75
2023/12/07 13:17:08;;;;;;;235.52;51.15;;;;;;;;;;5072586;28;20419;-74
2023/12/07 13:19:34;;;;;;;258.30;53.70;;;;;;;;;;5064714;28;20416;-75
2023/12/07 13:22:01;;;;;;;306.40;56.33;;;;;;;;;;5103595;28;20395;-75
2023/12/07 13:24:27;;;;;;;256.70;52.83;;;;;;;;;;5052086;28;20458;-75
2023/12/07 13:26:53;;;;;;;190.63;50.28;;;;;;;;;;5066865;28;20494;-75
2023/12/07 13:29:19;;;;;;;360.17;58.73;;;;;;;;;;5052614;28;21047;-75
2023/12/07 13:31:46;;;;;;;217.15;49.88;;;;;;;;;;5069684;28;20400;-75
2023/12/07 13:34:13;;;;;;;186.27;47.15;;;;;;;;;;5075620;28;20419;-75
2023/12/07 13:36:39;;;;;;;185.90;46.40;;;;;;;;;;5069777;28;20424;-75
2023/12/07 13:39:05;;;;;;;191.82;51.50;;;;;;;;;;5080123;28;20400;-74
2023/12/07 13:41:33;;;;;;;190.67;48.13;;;;;;;;;;5069569;28;20428;-75
2023/12/07 13:44:01;;;;;;;170.77;47.35;;;;;;;;;;5056793;28;20781;-75
2023/12/07 13:46:27;;;;;;;135.63;41.60;;;;;;;;;;5069324;28;20448;-74
2023/12/07 13:48:53;;;;;;;263.15;50.28;;;;;;;;;;5077154;28;20499;-74
2023/12/07 13:51:20;;;;;;;191.00;47.40;;;;;;;;;;5052707;28;20879;-75
2023/12/07 13:53:48;;;;;;;130.68;44.38;;;;;;;;;;5099188;28;20923;-75
2023/12/07 13:56:14;;;;;;;124.93;40.63;;;;;;;;;;5086388;28;20461;-79
2023/12/07 13:58:40;;;;;;;308.47;56.70;;;;;;;;;;5065489;28;20395;-78
2023/12/07 14:01:06;;;;;;;593.92;79.25;;;;;;;;;;5092960;28;21129;-78
2023/12/07 14:03:33;;;;;;;110.50;41.40;;;;;;;;;;5080804;28;20500;-79
2023/12/07 14:05:59;;;;;;;123.32;41.72;;;;;;;;;;5085162;28;20862;-78
2023/12/07 14:08:26;;;;;;;440.15;71.93;;;;;;;;;;5059972;28;20427;-79
2023/12/07 14:10:52;;;;;;;185.27;44.57;;;;;;;;;;5089876;28;20467;-79
2023/12/07 14:13:18;;;;;;;127.03;40.47;;;;;;;;;;5077761;28;20407;-74